sensor_id;sensor_type;location;lat;lon;timestamp;noise_LAeq;noise_LA_min;noise_LA_max;noise_LA01;noise_LA95
1754;Laerm;58380;48.312;9.246;2023-03-14T06:55:37;48.07;39.91;61.26;;
1754;Laerm;58380;48.312;9.246;2023-03-14T06:58:03;47.34;39.54;56.30;;
1754;Laerm;58380;48.312;9.246;2023-03-14T07:00:28;50.38;41.34;58.76;;
1754;Laerm;58380;48.312;9.246;2023-03-14T07:02:54;51.62;40.15;60.66;;
1754;Laerm;58380;48.312;9.246;2023-03-14T07:05:19;50.07;39.23;62.58;;
1754;Laerm;58380;48.312;9.246;2023-03-14T07:07:45;49.13;42.68;58.52;;
1754;Laerm;58380;48.312;9.246;2023-03-14T07:10:11;49.17;41.69;59.65;;
1754;Laerm;58380;48.312;9.246;2023-03-14T07:12:36;47.65;40.96;56.91;;
1754;Laerm;58380;48.312;9.246;2023-03-14T07:15:02;48.57;38.22;60.23;;
1754;Laerm;58380;48.312;9.246;2023-03-14T07:17:27;47.62;37.28;56.72;;
1754;Laerm;58380;48.312;9.246;2023-03-14T07:19:53;48.63;36.56;62.08;;
1754;Laerm;58380;48.312;9.246;2023-03-14T07:22:18;51.03;41.87;62.82;;
1754;Laerm;58380;48.312;9.246;2023-03-14T07:24:43;47.58;37.33;58.14;;
1754;Laerm;58380;48.312;9.246;2023-03-14T07:27:09;47.38;37.75;56.68;;
1754;Laerm;58380;48.312;9.246;2023-03-14T07:29:34;48.64;37.53;60.14;;
1754;Laerm;58380;48.312;9.246;2023-03-14T07:32:00;47.98;38.25;65.94;;
1754;Laerm;58380;48.312;9.246;2023-03-14T07:34:29;45.64;36.42;56.50;;
1754;Laerm;58380;48.312;9.246;2023-03-14T07:36:55;47.29;37.46;58.10;;
1754;Laerm;58380;48.312;9.246;2023-03-14T07:39:20;47.35;38.78;61.90;;
1754;Laerm;58380;48.312;9.246;2023-03-14T07:41:45;49.97;35.32;68.10;;
1754;Laerm;58380;48.312;9.246;2023-03-14T07:44:11;49.87;40.39;63.11;;
1754;Laerm;58380;48.312;9.246;2023-03-14T07:46:36;45.94;38.27;56.37;;
1754;Laerm;58380;48.312;9.246;2023-03-14T07:49:02;50.23;41.31;65.44;;
1754;Laerm;58380;48.312;9.246;2023-03-14T07:51:28;45.49;35.89;62.42;;
1754;Laerm;58380;48.312;9.246;2023-03-14T07:53:53;45.56;37.03;56.56;;
1754;Laerm;58380;48.312;9.246;2023-03-14T07:56:18;47.82;39.73;56.82;;
1754;Laerm;58380;48.312;9.246;2023-03-14T07:58:44;46.88;38.91;56.50;;
1754;Laerm;58380;48.312;9.246;2023-03-14T08:01:09;52.80;39.69;69.78;;
1754;Laerm;58380;48.312;9.246;2023-03-14T08:03:35;57.52;36.35;68.64;;
1754;Laerm;58380;48.312;9.246;2023-03-14T08:06:00;57.68;40.38;69.26;;
1754;Laerm;58380;48.312;9.246;2023-03-14T08:08:26;52.18;39.90;66.84;;
1754;Laerm;58380;48.312;9.246;2023-03-14T08:10:51;56.74;39.59;73.56;;
1754;Laerm;58380;48.312;9.246;2023-03-14T08:13:16;49.11;37.31;70.59;;
1754;Laerm;58380;48.312;9.246;2023-03-14T08:15:42;51.05;43.36;59.59;;
1754;Laerm;58380;48.312;9.246;2023-03-14T08:18:07;52.16;46.13;60.77;;
1754;Laerm;58380;48.312;9.246;2023-03-14T08:20:33;51.19;45.08;67.58;;
1754;Laerm;58380;48.312;9.246;2023-03-14T08:23:00;51.11;44.95;59.44;;
1754;Laerm;58380;48.312;9.246;2023-03-14T08:25:27;50.15;45.67;55.68;;
1754;Laerm;58380;48.312;9.246;2023-03-14T08:27:53;48.64;41.63;57.54;;
1754;Laerm;58380;48.312;9.246;2023-03-14T08:30:21;51.50;43.26;72.14;;
1754;Laerm;58380;48.312;9.246;2023-03-14T08:32:47;51.68;43.36;65.30;;
1754;Laerm;58380;48.312;9.246;2023-03-14T08:35:13;49.46;40.34;61.14;;
1754;Laerm;58380;48.312;9.246;2023-03-14T08:37:39;50.01;37.22;63.42;;
1754;Laerm;58380;48.312;9.246;2023-03-14T08:40:06;46.56;37.93;55.27;;
1754;Laerm;58380;48.312;9.246;2023-03-14T08:42:36;44.65;37.20;57.19;;
1754;Laerm;58380;48.312;9.246;2023-03-14T08:45:03;45.66;38.25;53.44;;
1754;Laerm;58380;48.312;9.246;2023-03-14T08:47:29;47.41;40.51;55.41;;
1754;Laerm;58380;48.312;9.246;2023-03-14T08:49:55;48.18;36.54;61.70;;
1754;Laerm;58380;48.312;9.246;2023-03-14T08:52:20;44.15;33.43;56.16;;
1754;Laerm;58380;48.312;9.246;2023-03-14T08:54:46;47.43;36.60;57.55;;
1754;Laerm;58380;48.312;9.246;2023-03-14T08:57:12;46.09;37.84;58.63;;
1754;Laerm;58380;48.312;9.246;2023-03-14T08:59:37;47.69;36.73;59.33;;
1754;Laerm;58380;48.312;9.246;2023-03-14T09:02:03;45.62;36.97;57.08;;
1754;Laerm;58380;48.312;9.246;2023-03-14T09:04:31;45.81;37.80;58.85;;
1754;Laerm;58380;48.312;9.246;2023-03-14T09:06:56;44.67;35.43;60.11;;
1754;Laerm;58380;48.312;9.246;2023-03-14T09:12:09;43.91;34.38;51.74;;
1754;Laerm;58380;48.312;9.246;2023-03-14T09:14:43;45.10;39.48;53.48;;
1754;Laerm;58380;48.312;9.246;2023-03-14T09:17:14;42.66;37.31;51.56;;
1754;Laerm;58380;48.312;9.246;2023-03-14T09:26:42;48.77;39.84;65.18;;
1754;Laerm;58380;48.312;9.246;2023-03-14T09:29:08;45.62;38.72;57.29;;
1754;Laerm;58380;48.312;9.246;2023-03-14T09:31:33;45.39;37.18;59.93;;
1754;Laerm;58380;48.312;9.246;2023-03-14T09:34:00;46.64;40.19;61.99;;
1754;Laerm;58380;48.312;9.246;2023-03-14T09:36:27;45.64;38.59;55.67;;
1754;Laerm;58380;48.312;9.246;2023-03-14T09:38:52;47.38;41.17;57.40;;
1754;Laerm;58380;48.312;9.246;2023-03-14T09:41:31;47.65;39.48;59.71;;
1754;Laerm;58380;48.312;9.246;2023-03-14T09:44:18;46.13;38.93;55.77;;
1754;Laerm;58380;48.312;9.246;2023-03-14T09:46:51;49.55;39.79;75.96;;
1754;Laerm;58380;48.312;9.246;2023-03-14T09:49:30;48.64;42.34;62.55;;
1754;Laerm;58380;48.312;9.246;2023-03-14T09:52:00;49.25;43.21;66.46;;
1754;Laerm;58380;48.312;9.246;2023-03-14T09:57:35;49.66;41.76;62.14;;
1754;Laerm;58380;48.312;9.246;2023-03-14T10:00:10;47.45;39.50;65.55;;
1754;Laerm;58380;48.312;9.246;2023-03-14T10:02:43;47.61;41.33;62.23;;
1754;Laerm;58380;48.312;9.246;2023-03-14T10:05:18;48.50;40.78;71.87;;
1754;Laerm;58380;48.312;9.246;2023-03-14T10:07:45;47.74;40.79;64.93;;
1754;Laerm;58380;48.312;9.246;2023-03-14T10:12:47;47.36;39.64;64.06;;
1754;Laerm;58380;48.312;9.246;2023-03-14T10:15:15;49.32;40.84;70.46;;
1754;Laerm;58380;48.312;9.246;2023-03-14T10:17:50;47.66;40.69;60.23;;
1754;Laerm;58380;48.312;9.246;2023-03-14T10:20:28;48.87;41.18;72.80;;
1754;Laerm;58380;48.312;9.246;2023-03-14T10:23:05;47.42;39.79;64.76;;
1754;Laerm;58380;48.312;9.246;2023-03-14T10:25:38;51.54;44.23;69.82;;
1754;Laerm;58380;48.312;9.246;2023-03-14T10:28:09;51.36;40.89;62.66;;
1754;Laerm;58380;48.312;9.246;2023-03-14T10:30:48;49.21;40.90;70.72;;
1754;Laerm;58380;48.312;9.246;2023-03-14T10:33:23;48.00;39.71;61.88;;
1754;Laerm;58380;48.312;9.246;2023-03-14T10:35:56;45.67;38.20;54.98;;
1754;Laerm;58380;48.312;9.246;2023-03-14T10:38:30;47.42;37.96;58.30;;
1754;Laerm;58380;48.312;9.246;2023-03-14T10:40:57;47.37;39.25;59.07;;
1754;Laerm;58380;48.312;9.246;2023-03-14T10:43:30;48.40;41.07;59.81;;
1754;Laerm;58380;48.312;9.246;2023-03-14T10:46:12;49.50;43.83;61.32;;
1754;Laerm;58380;48.312;9.246;2023-03-14T10:48:39;47.50;41.47;57.49;;
1754;Laerm;58380;48.312;9.246;2023-03-14T10:53:45;48.51;42.03;61.30;;
1754;Laerm;58380;48.312;9.246;2023-03-14T10:56:23;50.13;43.51;70.57;;
1754;Laerm;58380;48.312;9.246;2023-03-14T10:58:54;50.34;38.44;66.82;;
1754;Laerm;58380;48.312;9.246;2023-03-14T11:05:19;46.53;39.08;63.48;;
1754;Laerm;58380;48.312;9.246;2023-03-14T11:07:48;47.09;39.68;67.42;;
1754;Laerm;58380;48.312;9.246;2023-03-14T11:10:31;49.03;41.65;64.42;;
1754;Laerm;58380;48.312;9.246;2023-03-14T11:13:30;48.32;40.11;66.52;;
1754;Laerm;58380;48.312;9.246;2023-03-14T11:27:48;49.78;42.61;62.64;;
1754;Laerm;58380;48.312;9.246;2023-03-14T11:31:33;51.55;42.54;67.55;;
1754;Laerm;58380;48.312;9.246;2023-03-14T11:34:15;48.83;40.91;78.84;;
1754;Laerm;58380;48.312;9.246;2023-03-14T11:36:51;51.51;40.66;76.46;;
1754;Laerm;58380;48.312;9.246;2023-03-14T11:39:19;47.24;40.58;67.83;;
1754;Laerm;58380;48.312;9.246;2023-03-14T11:41:49;49.42;39.29;70.18;;
1754;Laerm;58380;48.312;9.246;2023-03-14T11:44:27;49.11;41.00;76.71;;
1754;Laerm;58380;48.312;9.246;2023-03-14T11:47:04;48.32;39.28;69.04;;
1754;Laerm;58380;48.312;9.246;2023-03-14T11:49:40;48.94;40.65;68.85;;
1754;Laerm;58380;48.312;9.246;2023-03-14T11:52:20;48.27;40.61;70.65;;
1754;Laerm;58380;48.312;9.246;2023-03-14T11:54:55;44.32;38.62;61.71;;
1754;Laerm;58380;48.312;9.246;2023-03-14T11:57:24;47.86;39.32;58.52;;
1754;Laerm;58380;48.312;9.246;2023-03-14T12:08:49;48.50;42.34;66.60;;
1754;Laerm;58380;48.312;9.246;2023-03-14T12:11:44;48.91;40.11;73.70;;
1754;Laerm;58380;48.312;9.246;2023-03-14T12:14:29;48.66;42.16;65.16;;
1754;Laerm;58380;48.312;9.246;2023-03-14T12:16:59;50.74;43.47;69.85;;
1754;Laerm;58380;48.312;9.246;2023-03-14T12:19:32;49.09;44.04;64.29;;
1754;Laerm;58380;48.312;9.246;2023-03-14T12:22:21;52.64;44.83;70.25;;
1754;Laerm;58380;48.312;9.246;2023-03-14T12:24:57;50.32;43.60;70.87;;
1754;Laerm;58380;48.312;9.246;2023-03-14T12:27:49;51.33;43.45;79.22;;
1754;Laerm;58380;48.312;9.246;2023-03-14T12:30:26;50.15;44.58;70.82;;
1754;Laerm;58380;48.312;9.246;2023-03-14T12:35:45;50.14;43.21;66.78;;
1754;Laerm;58380;48.312;9.246;2023-03-14T12:38:23;48.14;41.89;68.29;;
1754;Laerm;58380;48.312;9.246;2023-03-14T12:41:15;50.58;43.40;61.89;;
1754;Laerm;58380;48.312;9.246;2023-03-14T12:43:42;52.04;46.50;69.39;;
1754;Laerm;58380;48.312;9.246;2023-03-14T12:48:46;72.55;50.39;100.16;;
1754;Laerm;58380;48.312;9.246;2023-03-14T12:51:17;55.06;46.52;86.11;;
1754;Laerm;58380;48.312;9.246;2023-03-14T13:00:02;55.59;45.55;76.00;;
1754;Laerm;58380;48.312;9.246;2023-03-14T13:02:44;51.13;44.76;80.64;;
1754;Laerm;58380;48.312;9.246;2023-03-14T13:05:18;49.66;45.51;59.21;;
1754;Laerm;58380;48.312;9.246;2023-03-14T13:10:23;50.50;43.56;74.15;;
1754;Laerm;58380;48.312;9.246;2023-03-14T13:13:24;51.91;43.59;66.80;;
1754;Laerm;58380;48.312;9.246;2023-03-14T13:15:57;50.56;44.38;74.89;;
1754;Laerm;58380;48.312;9.246;2023-03-14T13:18:39;50.51;44.35;69.68;;
1754;Laerm;58380;48.312;9.246;2023-03-14T13:21:13;50.27;42.34;68.19;;
1754;Laerm;58380;48.312;9.246;2023-03-14T13:23:40;50.12;43.35;66.03;;
1754;Laerm;58380;48.312;9.246;2023-03-14T13:26:13;48.45;42.14;59.65;;
1754;Laerm;58380;48.312;9.246;2023-03-14T13:28:39;47.86;42.39;60.47;;
1754;Laerm;58380;48.312;9.246;2023-03-14T13:31:24;47.34;41.52;58.44;;
1754;Laerm;58380;48.312;9.246;2023-03-14T13:34:04;50.08;41.85;68.95;;
1754;Laerm;58380;48.312;9.246;2023-03-14T13:36:31;45.77;40.58;59.66;;
1754;Laerm;58380;48.312;9.246;2023-03-14T13:38:59;49.34;42.83;61.47;;
1754;Laerm;58380;48.312;9.246;2023-03-14T13:41:27;48.22;42.97;62.85;;
1754;Laerm;58380;48.312;9.246;2023-03-14T13:44:03;48.85;41.84;64.11;;
1754;Laerm;58380;48.312;9.246;2023-03-14T13:46:34;48.25;41.98;59.58;;
1754;Laerm;58380;48.312;9.246;2023-03-14T13:49:09;53.34;41.88;71.38;;
1754;Laerm;58380;48.312;9.246;2023-03-14T13:51:39;47.73;41.64;58.37;;
1754;Laerm;58380;48.312;9.246;2023-03-14T13:54:15;49.25;41.62;61.18;;
1754;Laerm;58380;48.312;9.246;2023-03-14T13:56:41;51.50;41.21;74.03;;
1754;Laerm;58380;48.312;9.246;2023-03-14T13:59:24;48.02;41.94;69.26;;
1754;Laerm;58380;48.312;9.246;2023-03-14T14:01:52;46.95;41.24;59.31;;
1754;Laerm;58380;48.312;9.246;2023-03-14T14:04:21;49.39;42.05;61.57;;
1754;Laerm;58380;48.312;9.246;2023-03-14T14:06:56;46.56;41.64;60.83;;
1754;Laerm;58380;48.312;9.246;2023-03-14T14:09:36;48.22;41.18;66.36;;
1754;Laerm;58380;48.312;9.246;2023-03-14T14:12:12;48.12;43.13;65.41;;
1754;Laerm;58380;48.312;9.246;2023-03-14T14:17:42;50.07;42.89;69.11;;
1754;Laerm;58380;48.312;9.246;2023-03-14T14:20:43;47.16;42.60;54.43;;
1754;Laerm;58380;48.312;9.246;2023-03-14T14:23:22;49.62;44.21;62.01;;
1754;Laerm;58380;48.312;9.246;2023-03-14T14:25:56;55.91;44.79;78.06;;
1754;Laerm;58380;48.312;9.246;2023-03-14T14:31:22;47.96;40.82;54.46;;
1754;Laerm;58380;48.312;9.246;2023-03-14T14:36:41;53.28;39.32;72.62;;
1754;Laerm;58380;48.312;9.246;2023-03-14T14:39:20;51.38;42.07;68.14;;
1754;Laerm;58380;48.312;9.246;2023-03-14T14:41:49;47.81;42.75;61.19;;
1754;Laerm;58380;48.312;9.246;2023-03-14T14:44:28;48.54;40.87;67.94;;
1754;Laerm;58380;48.312;9.246;2023-03-14T14:46:56;49.22;41.44;66.41;;
1754;Laerm;58380;48.312;9.246;2023-03-14T14:49:30;47.31;40.71;65.29;;
1754;Laerm;58380;48.312;9.246;2023-03-14T14:52:14;46.94;41.45;60.99;;
1754;Laerm;58380;48.312;9.246;2023-03-14T14:54:58;45.62;41.28;52.15;;
1754;Laerm;58380;48.312;9.246;2023-03-14T14:57:28;44.51;39.70;49.59;;
1754;Laerm;58380;48.312;9.246;2023-03-14T15:00:01;45.93;41.63;62.43;;
1754;Laerm;58380;48.312;9.246;2023-03-14T15:02:40;48.01;42.63;64.13;;
1754;Laerm;58380;48.312;9.246;2023-03-14T15:05:22;44.97;40.43;59.14;;
1754;Laerm;58380;48.312;9.246;2023-03-14T15:07:48;50.56;41.99;69.84;;
1754;Laerm;58380;48.312;9.246;2023-03-14T15:10:18;50.25;42.50;62.86;;
1754;Laerm;58380;48.312;9.246;2023-03-14T15:12:44;47.68;41.63;64.57;;
1754;Laerm;58380;48.312;9.246;2023-03-14T15:15:11;47.25;41.57;67.70;;
1754;Laerm;58380;48.312;9.246;2023-03-14T15:17:38;47.13;41.54;60.89;;
1754;Laerm;58380;48.312;9.246;2023-03-14T15:20:04;49.01;40.97;68.89;;
1754;Laerm;58380;48.312;9.246;2023-03-14T15:22:31;49.59;43.63;69.12;;
1754;Laerm;58380;48.312;9.246;2023-03-14T15:24:56;48.14;42.91;67.68;;
1754;Laerm;58380;48.312;9.246;2023-03-14T15:27:22;47.84;41.96;64.12;;
1754;Laerm;58380;48.312;9.246;2023-03-14T15:29:47;49.13;40.97;70.73;;
1754;Laerm;58380;48.312;9.246;2023-03-14T15:32:16;52.26;45.16;73.65;;
1754;Laerm;58380;48.312;9.246;2023-03-14T15:34:42;50.12;43.25;65.21;;
1754;Laerm;58380;48.312;9.246;2023-03-14T15:37:15;47.00;41.15;63.81;;
1754;Laerm;58380;48.312;9.246;2023-03-14T15:39:45;46.78;40.68;61.68;;
1754;Laerm;58380;48.312;9.246;2023-03-14T15:42:11;48.91;39.76;66.16;;
1754;Laerm;58380;48.312;9.246;2023-03-14T15:44:36;45.47;39.45;57.93;;
1754;Laerm;58380;48.312;9.246;2023-03-14T15:47:03;44.81;39.40;58.46;;
1754;Laerm;58380;48.312;9.246;2023-03-14T15:49:28;50.54;41.59;66.57;;
1754;Laerm;58380;48.312;9.246;2023-03-14T15:51:54;45.99;40.48;53.76;;
1754;Laerm;58380;48.312;9.246;2023-03-14T15:54:19;45.99;37.06;64.66;;
1754;Laerm;58380;48.312;9.246;2023-03-14T15:56:45;45.36;39.51;59.96;;
1754;Laerm;58380;48.312;9.246;2023-03-14T15:59:10;50.13;39.79;62.68;;
1754;Laerm;58380;48.312;9.246;2023-03-14T16:01:36;47.57;39.55;66.88;;
1754;Laerm;58380;48.312;9.246;2023-03-14T16:04:02;45.36;38.39;66.67;;
1754;Laerm;58380;48.312;9.246;2023-03-14T16:06:28;46.27;38.94;58.22;;
1754;Laerm;58380;48.312;9.246;2023-03-14T16:08:54;45.28;38.94;54.64;;
1754;Laerm;58380;48.312;9.246;2023-03-14T16:11:20;47.66;40.77;62.39;;
1754;Laerm;58380;48.312;9.246;2023-03-14T16:13:46;47.71;40.71;62.07;;
1754;Laerm;58380;48.312;9.246;2023-03-14T16:16:11;48.52;40.93;68.23;;
1754;Laerm;58380;48.312;9.246;2023-03-14T16:18:40;47.03;40.65;62.23;;
1754;Laerm;58380;48.312;9.246;2023-03-14T16:21:24;47.47;38.87;66.62;;
1754;Laerm;58380;48.312;9.246;2023-03-14T16:23:50;44.37;37.45;59.26;;
1754;Laerm;58380;48.312;9.246;2023-03-14T16:26:18;46.55;39.31;68.50;;
1754;Laerm;58380;48.312;9.246;2023-03-14T16:28:46;44.06;35.04;59.97;;
1754;Laerm;58380;48.312;9.246;2023-03-14T16:31:15;48.64;35.69;61.87;;
1754;Laerm;58380;48.312;9.246;2023-03-14T16:33:42;43.41;35.87;54.89;;
1754;Laerm;58380;48.312;9.246;2023-03-14T16:36:11;44.13;37.81;53.74;;
1754;Laerm;58380;48.312;9.246;2023-03-14T16:38:40;45.34;36.94;62.31;;
1754;Laerm;58380;48.312;9.246;2023-03-14T16:41:16;48.24;39.02;65.88;;
1754;Laerm;58380;48.312;9.246;2023-03-14T16:43:43;50.08;41.16;73.39;;
1754;Laerm;58380;48.312;9.246;2023-03-14T16:46:17;49.10;40.84;69.16;;
1754;Laerm;58380;48.312;9.246;2023-03-14T16:48:43;48.75;38.81;66.47;;
1754;Laerm;58380;48.312;9.246;2023-03-14T16:51:09;50.99;39.03;69.71;;
1754;Laerm;58380;48.312;9.246;2023-03-14T16:53:35;54.00;41.35;78.42;;
1754;Laerm;58380;48.312;9.246;2023-03-14T16:56:00;51.96;41.04;73.21;;
1754;Laerm;58380;48.312;9.246;2023-03-14T16:58:26;49.41;41.54;65.14;;
1754;Laerm;58380;48.312;9.246;2023-03-14T17:00:52;48.81;40.97;61.67;;
1754;Laerm;58380;48.312;9.246;2023-03-14T17:03:18;49.02;41.62;63.47;;
1754;Laerm;58380;48.312;9.246;2023-03-14T17:05:45;49.13;40.13;67.82;;
1754;Laerm;58380;48.312;9.246;2023-03-14T17:08:11;49.91;40.29;70.78;;
1754;Laerm;58380;48.312;9.246;2023-03-14T17:10:37;46.84;39.80;58.99;;
1754;Laerm;58380;48.312;9.246;2023-03-14T17:13:02;48.38;39.23;69.89;;
1754;Laerm;58380;48.312;9.246;2023-03-14T17:15:27;45.94;39.58;58.35;;
1754;Laerm;58380;48.312;9.246;2023-03-14T17:17:53;45.61;36.89;54.93;;
1754;Laerm;58380;48.312;9.246;2023-03-14T17:20:18;50.72;33.77;65.95;;
1754;Laerm;58380;48.312;9.246;2023-03-14T17:22:44;44.43;37.40;56.40;;
1754;Laerm;58380;48.312;9.246;2023-03-14T17:25:09;41.97;31.78;51.80;;
1754;Laerm;58380;48.312;9.246;2023-03-14T17:27:35;46.79;37.22;62.42;;
1754;Laerm;58380;48.312;9.246;2023-03-14T17:30:03;44.34;35.26;62.59;;
1754;Laerm;58380;48.312;9.246;2023-03-14T17:32:28;49.40;35.34;65.45;;
1754;Laerm;58380;48.312;9.246;2023-03-14T17:34:54;49.63;35.98;64.82;;
1754;Laerm;58380;48.312;9.246;2023-03-14T17:37:19;48.32;32.56;64.08;;
1754;Laerm;58380;48.312;9.246;2023-03-14T17:39:44;50.49;36.64;67.49;;
1754;Laerm;58380;48.312;9.246;2023-03-14T17:42:10;51.32;36.81;68.17;;
1754;Laerm;58380;48.312;9.246;2023-03-14T17:44:35;48.46;36.79;68.42;;
1754;Laerm;58380;48.312;9.246;2023-03-14T17:47:01;41.75;32.88;51.73;;
1754;Laerm;58380;48.312;9.246;2023-03-14T17:49:27;43.96;34.18;62.39;;
1754;Laerm;58380;48.312;9.246;2023-03-14T17:51:52;50.10;37.40;80.50;;
1754;Laerm;58380;48.312;9.246;2023-03-14T17:54:18;55.84;39.66;90.27;;
1754;Laerm;58380;48.312;9.246;2023-03-14T17:56:43;46.87;40.96;72.16;;
1754;Laerm;58380;48.312;9.246;2023-03-14T17:59:10;51.87;40.35;77.65;;
1754;Laerm;58380;48.312;9.246;2023-03-14T18:01:35;50.50;42.51;79.50;;
1754;Laerm;58380;48.312;9.246;2023-03-14T18:04:01;46.40;38.08;73.19;;
1754;Laerm;58380;48.312;9.246;2023-03-14T18:06:27;45.15;34.40;65.58;;
1754;Laerm;58380;48.312;9.246;2023-03-14T18:08:55;45.21;35.32;63.20;;
1754;Laerm;58380;48.312;9.246;2023-03-14T18:11:21;41.94;32.85;60.59;;
1754;Laerm;58380;48.312;9.246;2023-03-14T18:13:48;42.54;32.34;52.70;;
1754;Laerm;58380;48.312;9.246;2023-03-14T18:16:13;41.91;33.33;50.85;;
1754;Laerm;58380;48.312;9.246;2023-03-14T18:18:40;43.10;33.97;59.06;;
1754;Laerm;58380;48.312;9.246;2023-03-14T18:21:06;41.89;32.89;57.32;;
1754;Laerm;58380;48.312;9.246;2023-03-14T18:23:32;42.97;32.06;53.51;;
1754;Laerm;58380;48.312;9.246;2023-03-14T18:25:59;43.88;33.38;51.44;;
1754;Laerm;58380;48.312;9.246;2023-03-14T18:28:26;41.95;32.23;52.69;;
1754;Laerm;58380;48.312;9.246;2023-03-14T18:30:59;47.63;33.04;62.59;;
1754;Laerm;58380;48.312;9.246;2023-03-14T18:33:24;43.69;33.52;54.57;;
1754;Laerm;58380;48.312;9.246;2023-03-14T18:35:50;40.15;32.11;56.07;;
1754;Laerm;58380;48.312;9.246;2023-03-14T18:38:17;43.20;34.45;58.76;;
1754;Laerm;58380;48.312;9.246;2023-03-14T18:40:42;39.98;34.58;50.90;;
1754;Laerm;58380;48.312;9.246;2023-03-14T18:43:08;43.92;36.93;69.76;;
1754;Laerm;58380;48.312;9.246;2023-03-14T18:45:33;42.33;36.63;51.16;;
1754;Laerm;58380;48.312;9.246;2023-03-14T18:47:59;41.85;34.66;49.94;;
1754;Laerm;58380;48.312;9.246;2023-03-14T18:50:24;40.95;33.89;54.31;;
1754;Laerm;58380;48.312;9.246;2023-03-14T18:52:49;45.42;37.91;58.50;;
1754;Laerm;58380;48.312;9.246;2023-03-14T18:55:15;41.93;32.10;51.88;;
1754;Laerm;58380;48.312;9.246;2023-03-14T18:57:40;37.28;30.19;50.74;;
1754;Laerm;58380;48.312;9.246;2023-03-14T19:00:07;39.67;31.27;51.01;;
1754;Laerm;58380;48.312;9.246;2023-03-14T19:02:34;43.38;31.20;53.82;;
1754;Laerm;58380;48.312;9.246;2023-03-14T19:05:00;41.57;33.79;53.16;;
1754;Laerm;58380;48.312;9.246;2023-03-14T19:09:55;39.76;31.73;56.28;;
1754;Laerm;58380;48.312;9.246;2023-03-14T19:12:20;37.65;31.15;50.27;;
1754;Laerm;58380;48.312;9.246;2023-03-14T19:14:45;39.46;31.74;54.52;;
1754;Laerm;58380;48.312;9.246;2023-03-14T19:17:11;40.43;32.94;51.36;;
1754;Laerm;58380;48.312;9.246;2023-03-14T19:19:36;39.92;32.05;53.44;;
1754;Laerm;58380;48.312;9.246;2023-03-14T19:22:02;44.26;35.44;57.05;;
1754;Laerm;58380;48.312;9.246;2023-03-14T19:24:27;37.43;30.58;46.59;;
1754;Laerm;58380;48.312;9.246;2023-03-14T19:26:53;40.61;32.65;51.40;;
1754;Laerm;58380;48.312;9.246;2023-03-14T19:29:18;39.94;31.36;54.77;;
1754;Laerm;58380;48.312;9.246;2023-03-14T19:31:44;40.88;33.19;51.98;;
1754;Laerm;58380;48.312;9.246;2023-03-14T19:34:10;41.61;31.97;50.63;;
1754;Laerm;58380;48.312;9.246;2023-03-14T19:36:36;42.83;31.66;57.80;;
1754;Laerm;58380;48.312;9.246;2023-03-14T19:39:05;35.63;29.32;48.58;;
1754;Laerm;58380;48.312;9.246;2023-03-14T19:41:32;39.34;29.39;49.75;;
1754;Laerm;58380;48.312;9.246;2023-03-14T19:43:58;37.57;29.89;51.71;;
1754;Laerm;58380;48.312;9.246;2023-03-14T19:46:24;37.02;29.51;49.53;;
1754;Laerm;58380;48.312;9.246;2023-03-14T19:48:50;40.79;32.13;50.91;;
1754;Laerm;58380;48.312;9.246;2023-03-14T19:51:18;39.38;30.09;50.46;;
1754;Laerm;58380;48.312;9.246;2023-03-14T19:53:44;38.40;28.74;51.37;;
1754;Laerm;58380;48.312;9.246;2023-03-14T19:56:11;36.47;28.73;47.59;;
1754;Laerm;58380;48.312;9.246;2023-03-14T19:58:37;38.96;29.72;48.52;;
1754;Laerm;58380;48.312;9.246;2023-03-14T20:01:04;39.93;30.29;51.19;;
1754;Laerm;58380;48.312;9.246;2023-03-14T20:03:32;42.82;30.93;52.96;;
1754;Laerm;58380;48.312;9.246;2023-03-14T20:05:58;44.56;32.36;56.17;;
1754;Laerm;58380;48.312;9.246;2023-03-14T20:08:23;37.69;30.81;47.84;;
1754;Laerm;58380;48.312;9.246;2023-03-14T20:10:49;40.35;30.37;51.56;;
1754;Laerm;58380;48.312;9.246;2023-03-14T20:13:15;38.55;31.36;47.23;;
1754;Laerm;58380;48.312;9.246;2023-03-14T20:15:40;41.12;33.39;51.24;;
1754;Laerm;58380;48.312;9.246;2023-03-14T20:18:06;39.45;30.17;49.70;;
1754;Laerm;58380;48.312;9.246;2023-03-14T20:20:32;38.08;30.35;49.05;;
1754;Laerm;58380;48.312;9.246;2023-03-14T20:22:57;38.65;30.45;48.73;;
1754;Laerm;58380;48.312;9.246;2023-03-14T20:25:23;40.02;30.51;53.03;;
1754;Laerm;58380;48.312;9.246;2023-03-14T20:27:49;43.32;32.10;60.97;;
1754;Laerm;58380;48.312;9.246;2023-03-14T20:30:18;40.79;29.82;50.17;;
1754;Laerm;58380;48.312;9.246;2023-03-14T20:32:48;40.13;29.59;48.23;;
1754;Laerm;58380;48.312;9.246;2023-03-14T20:35:15;41.39;31.36;53.50;;
1754;Laerm;58380;48.312;9.246;2023-03-14T20:37:50;36.98;28.89;49.82;;
1754;Laerm;58380;48.312;9.246;2023-03-14T20:40:17;38.90;30.02;48.81;;
1754;Laerm;58380;48.312;9.246;2023-03-14T20:42:43;35.56;29.46;46.78;;
1754;Laerm;58380;48.312;9.246;2023-03-14T20:45:09;41.31;28.72;53.03;;
1754;Laerm;58380;48.312;9.246;2023-03-14T20:47:35;37.03;29.01;48.67;;
1754;Laerm;58380;48.312;9.246;2023-03-14T20:50:01;38.04;31.38;48.73;;
1754;Laerm;58380;48.312;9.246;2023-03-14T20:52:27;40.54;31.94;52.54;;
1754;Laerm;58380;48.312;9.246;2023-03-14T20:54:53;35.51;29.66;44.48;;
1754;Laerm;58380;48.312;9.246;2023-03-14T20:57:19;38.98;29.95;46.99;;
1754;Laerm;58380;48.312;9.246;2023-03-14T20:59:44;38.61;29.96;50.54;;
1754;Laerm;58380;48.312;9.246;2023-03-14T21:02:10;34.99;28.70;47.16;;
1754;Laerm;58380;48.312;9.246;2023-03-14T21:04:36;34.01;28.74;47.90;;
1754;Laerm;58380;48.312;9.246;2023-03-14T21:07:02;36.82;29.67;48.06;;
1754;Laerm;58380;48.312;9.246;2023-03-14T21:09:27;33.49;29.01;47.06;;
1754;Laerm;58380;48.312;9.246;2023-03-14T21:11:53;37.28;29.43;46.74;;
1754;Laerm;58380;48.312;9.246;2023-03-14T21:14:18;39.67;30.14;48.67;;
1754;Laerm;58380;48.312;9.246;2023-03-14T21:16:50;32.79;28.65;42.57;;
1754;Laerm;58380;48.312;9.246;2023-03-14T21:19:20;33.58;28.64;50.07;;
1754;Laerm;58380;48.312;9.246;2023-03-14T21:21:46;39.18;32.08;49.32;;
1754;Laerm;58380;48.312;9.246;2023-03-14T21:24:11;36.99;31.17;46.64;;
1754;Laerm;58380;48.312;9.246;2023-03-14T21:26:40;36.09;30.02;48.67;;
1754;Laerm;58380;48.312;9.246;2023-03-14T21:29:06;37.47;31.48;45.64;;
1754;Laerm;58380;48.312;9.246;2023-03-14T21:31:31;41.56;34.15;50.28;;
1754;Laerm;58380;48.312;9.246;2023-03-14T21:33:58;35.67;30.33;50.34;;
1754;Laerm;58380;48.312;9.246;2023-03-14T21:36:24;39.68;30.20;56.60;;
1754;Laerm;58380;48.312;9.246;2023-03-14T21:38:49;39.37;31.55;59.12;;
1754;Laerm;58380;48.312;9.246;2023-03-14T21:41:14;42.55;32.90;63.03;;
1754;Laerm;58380;48.312;9.246;2023-03-14T21:43:41;40.58;32.28;60.58;;
1754;Laerm;58380;48.312;9.246;2023-03-14T21:46:08;37.43;31.80;52.26;;
1754;Laerm;58380;48.312;9.246;2023-03-14T21:48:34;41.99;31.13;52.40;;
1754;Laerm;58380;48.312;9.246;2023-03-14T21:51:03;33.31;30.26;58.82;;
1754;Laerm;58380;48.312;9.246;2023-03-14T21:53:30;38.65;30.76;54.39;;
1754;Laerm;58380;48.312;9.246;2023-03-14T21:55:56;43.01;30.84;71.43;;
1754;Laerm;58380;48.312;9.246;2023-03-14T21:58:23;38.33;30.65;62.65;;
1754;Laerm;58380;48.312;9.246;2023-03-14T22:00:49;41.00;31.18;65.72;;
1754;Laerm;58380;48.312;9.246;2023-03-14T22:03:17;45.57;31.84;73.18;;
1754;Laerm;58380;48.312;9.246;2023-03-14T22:05:49;39.29;29.14;63.52;;
1754;Laerm;58380;48.312;9.246;2023-03-14T22:08:18;35.88;28.79;62.88;;
1754;Laerm;58380;48.312;9.246;2023-03-14T22:10:52;37.91;29.33;56.12;;
